sensor_id;sensor_type;location;lat;lon;timestamp;P1;durP1;ratioP1;P2;durP2;ratioP2
53072;SDS011;38955;48.916;2.336;2023-09-19T00:00:43;6.45;;;2.10;;
53072;SDS011;38955;48.916;2.336;2023-09-19T00:02:52;12.38;;;2.30;;
53072;SDS011;38955;48.916;2.336;2023-09-19T00:04:54;11.23;;;2.08;;
53072;SDS011;38955;48.916;2.336;2023-09-19T00:06:57;6.28;;;2.63;;
53072;SDS011;38955;48.916;2.336;2023-09-19T00:08:59;8.32;;;2.17;;
53072;SDS011;38955;48.916;2.336;2023-09-19T00:11:01;6.80;;;1.85;;
53072;SDS011;38955;48.916;2.336;2023-09-19T00:13:07;8.35;;;1.80;;
53072;SDS011;38955;48.916;2.336;2023-09-19T00:15:14;8.00;;;1.95;;
53072;SDS011;38955;48.916;2.336;2023-09-19T00:17:20;14.45;;;2.22;;
53072;SDS011;38955;48.916;2.336;2023-09-19T00:19:22;9.90;;;2.30;;
53072;SDS011;38955;48.916;2.336;2023-09-19T00:21:25;5.30;;;1.50;;
53072;SDS011;38955;48.916;2.336;2023-09-19T00:23:27;8.70;;;2.42;;
53072;SDS011;38955;48.916;2.336;2023-09-19T00:25:29;8.00;;;2.08;;
53072;SDS011;38955;48.916;2.336;2023-09-19T00:27:34;11.85;;;2.88;;
53072;SDS011;38955;48.916;2.336;2023-09-19T00:29:36;7.85;;;2.28;;
53072;SDS011;38955;48.916;2.336;2023-09-19T00:31:38;7.85;;;2.38;;
53072;SDS011;38955;48.916;2.336;2023-09-19T00:33:42;10.20;;;2.40;;
53072;SDS011;38955;48.916;2.336;2023-09-19T00:35:47;8.57;;;2.22;;
53072;SDS011;38955;48.916;2.336;2023-09-19T00:37:50;10.52;;;2.10;;
53072;SDS011;38955;48.916;2.336;2023-09-19T00:39:52;8.02;;;2.03;;
53072;SDS011;38955;48.916;2.336;2023-09-19T00:41:54;11.93;;;2.60;;
53072;SDS011;38955;48.916;2.336;2023-09-19T00:43:56;6.65;;;2.10;;
53072;SDS011;38955;48.916;2.336;2023-09-19T00:45:58;13.25;;;3.20;;
53072;SDS011;38955;48.916;2.336;2023-09-19T00:48:02;7.20;;;2.47;;
53072;SDS011;38955;48.916;2.336;2023-09-19T00:50:07;9.98;;;2.50;;
53072;SDS011;38955;48.916;2.336;2023-09-19T00:52:11;8.48;;;2.03;;
53072;SDS011;38955;48.916;2.336;2023-09-19T00:54:14;8.48;;;2.72;;
53072;SDS011;38955;48.916;2.336;2023-09-19T00:56:19;9.00;;;2.60;;
53072;SDS011;38955;48.916;2.336;2023-09-19T00:58:22;6.50;;;2.17;;
53072;SDS011;38955;48.916;2.336;2023-09-19T01:00:24;9.57;;;2.25;;
53072;SDS011;38955;48.916;2.336;2023-09-19T01:02:27;6.95;;;2.28;;
53072;SDS011;38955;48.916;2.336;2023-09-19T01:04:29;10.15;;;2.55;;
53072;SDS011;38955;48.916;2.336;2023-09-19T01:06:34;12.38;;;2.35;;
53072;SDS011;38955;48.916;2.336;2023-09-19T01:08:38;9.55;;;2.17;;
53072;SDS011;38955;48.916;2.336;2023-09-19T01:10:41;9.43;;;2.30;;
53072;SDS011;38955;48.916;2.336;2023-09-19T01:12:55;9.00;;;2.13;;
53072;SDS011;38955;48.916;2.336;2023-09-19T01:15:10;10.48;;;2.15;;
53072;SDS011;38955;48.916;2.336;2023-09-19T01:17:19;7.15;;;2.05;;
53072;SDS011;38955;48.916;2.336;2023-09-19T01:19:42;6.05;;;2.10;;
53072;SDS011;38955;48.916;2.336;2023-09-19T01:22:08;8.05;;;2.20;;
53072;SDS011;38955;48.916;2.336;2023-09-19T01:24:33;9.27;;;2.40;;
53072;SDS011;38955;48.916;2.336;2023-09-19T01:27:09;10.88;;;2.28;;
53072;SDS011;38955;48.916;2.336;2023-09-19T01:29:33;11.48;;;2.67;;
53072;SDS011;38955;48.916;2.336;2023-09-19T01:31:42;10.93;;;2.03;;
53072;SDS011;38955;48.916;2.336;2023-09-19T01:33:56;5.63;;;1.92;;
53072;SDS011;38955;48.916;2.336;2023-09-19T01:36:01;8.77;;;2.00;;
53072;SDS011;38955;48.916;2.336;2023-09-19T01:38:04;10.02;;;2.50;;
53072;SDS011;38955;48.916;2.336;2023-09-19T01:40:08;6.32;;;2.25;;
53072;SDS011;38955;48.916;2.336;2023-09-19T01:42:21;6.85;;;2.00;;
53072;SDS011;38955;48.916;2.336;2023-09-19T01:44:35;10.35;;;1.98;;
53072;SDS011;38955;48.916;2.336;2023-09-19T01:46:45;8.57;;;2.17;;
53072;SDS011;38955;48.916;2.336;2023-09-19T01:48:51;9.27;;;2.17;;
53072;SDS011;38955;48.916;2.336;2023-09-19T01:50:59;10.85;;;2.45;;
53072;SDS011;38955;48.916;2.336;2023-09-19T01:53:04;10.70;;;2.35;;
53072;SDS011;38955;48.916;2.336;2023-09-19T01:55:10;6.22;;;2.05;;
53072;SDS011;38955;48.916;2.336;2023-09-19T01:57:20;13.55;;;2.83;;
53072;SDS011;38955;48.916;2.336;2023-09-19T01:59:31;11.73;;;2.47;;
53072;SDS011;38955;48.916;2.336;2023-09-19T02:01:38;12.70;;;2.60;;
53072;SDS011;38955;48.916;2.336;2023-09-19T02:03:43;14.90;;;3.25;;
53072;SDS011;38955;48.916;2.336;2023-09-19T02:05:48;16.05;;;2.70;;
53072;SDS011;38955;48.916;2.336;2023-09-19T02:07:51;11.80;;;2.45;;
53072;SDS011;38955;48.916;2.336;2023-09-19T02:09:54;8.13;;;2.55;;
53072;SDS011;38955;48.916;2.336;2023-09-19T02:11:56;9.35;;;2.30;;
53072;SDS011;38955;48.916;2.336;2023-09-19T02:14:00;7.90;;;2.10;;
53072;SDS011;38955;48.916;2.336;2023-09-19T02:16:02;9.60;;;2.42;;
53072;SDS011;38955;48.916;2.336;2023-09-19T02:18:06;11.00;;;3.50;;
53072;SDS011;38955;48.916;2.336;2023-09-19T02:20:10;10.10;;;2.00;;
53072;SDS011;38955;48.916;2.336;2023-09-19T02:22:16;11.02;;;2.95;;
53072;SDS011;38955;48.916;2.336;2023-09-19T02:24:18;13.95;;;3.05;;
53072;SDS011;38955;48.916;2.336;2023-09-19T02:26:20;10.18;;;2.40;;
53072;SDS011;38955;48.916;2.336;2023-09-19T02:28:23;7.50;;;1.75;;
53072;SDS011;38955;48.916;2.336;2023-09-19T02:30:25;13.95;;;3.00;;
53072;SDS011;38955;48.916;2.336;2023-09-19T02:32:27;9.38;;;1.98;;
53072;SDS011;38955;48.916;2.336;2023-09-19T02:34:31;10.40;;;2.58;;
53072;SDS011;38955;48.916;2.336;2023-09-19T02:36:35;15.10;;;2.67;;
53072;SDS011;38955;48.916;2.336;2023-09-19T02:38:37;15.55;;;2.80;;
53072;SDS011;38955;48.916;2.336;2023-09-19T02:40:39;12.73;;;2.63;;
53072;SDS011;38955;48.916;2.336;2023-09-19T02:42:42;12.82;;;3.28;;
53072;SDS011;38955;48.916;2.336;2023-09-19T02:44:48;10.50;;;2.40;;
53072;SDS011;38955;48.916;2.336;2023-09-19T02:46:50;15.00;;;2.65;;
53072;SDS011;38955;48.916;2.336;2023-09-19T02:48:52;10.63;;;2.17;;
53072;SDS011;38955;48.916;2.336;2023-09-19T02:50:56;10.07;;;2.65;;
53072;SDS011;38955;48.916;2.336;2023-09-19T02:52:59;8.85;;;2.40;;
53072;SDS011;38955;48.916;2.336;2023-09-19T02:55:01;12.20;;;3.25;;
53072;SDS011;38955;48.916;2.336;2023-09-19T02:57:05;11.77;;;2.47;;
53072;SDS011;38955;48.916;2.336;2023-09-19T02:59:08;14.85;;;3.60;;
53072;SDS011;38955;48.916;2.336;2023-09-19T03:01:12;11.82;;;3.15;;
53072;SDS011;38955;48.916;2.336;2023-09-19T03:03:15;9.82;;;2.33;;
53072;SDS011;38955;48.916;2.336;2023-09-19T03:05:20;15.10;;;2.63;;
53072;SDS011;38955;48.916;2.336;2023-09-19T03:07:23;14.77;;;2.95;;
53072;SDS011;38955;48.916;2.336;2023-09-19T03:09:28;10.63;;;2.97;;
53072;SDS011;38955;48.916;2.336;2023-09-19T03:11:30;10.45;;;2.75;;
53072;SDS011;38955;48.916;2.336;2023-09-19T03:13:32;13.45;;;3.33;;
53072;SDS011;38955;48.916;2.336;2023-09-19T03:15:34;14.10;;;2.80;;
53072;SDS011;38955;48.916;2.336;2023-09-19T03:17:43;13.07;;;2.88;;
53072;SDS011;38955;48.916;2.336;2023-09-19T03:19:46;13.73;;;2.85;;
53072;SDS011;38955;48.916;2.336;2023-09-19T03:21:48;13.02;;;3.22;;
53072;SDS011;38955;48.916;2.336;2023-09-19T03:23:52;14.02;;;3.35;;
53072;SDS011;38955;48.916;2.336;2023-09-19T03:25:55;13.15;;;3.03;;
53072;SDS011;38955;48.916;2.336;2023-09-19T03:27:57;13.43;;;3.03;;
53072;SDS011;38955;48.916;2.336;2023-09-19T03:29:59;14.82;;;2.72;;
53072;SDS011;38955;48.916;2.336;2023-09-19T03:32:01;13.95;;;3.17;;
53072;SDS011;38955;48.916;2.336;2023-09-19T03:34:04;9.85;;;2.45;;
53072;SDS011;38955;48.916;2.336;2023-09-19T03:36:07;10.88;;;3.28;;
53072;SDS011;38955;48.916;2.336;2023-09-19T03:38:09;15.48;;;3.25;;
53072;SDS011;38955;48.916;2.336;2023-09-19T03:40:11;7.22;;;2.05;;
53072;SDS011;38955;48.916;2.336;2023-09-19T03:42:15;12.60;;;2.53;;
53072;SDS011;38955;48.916;2.336;2023-09-19T03:44:17;14.75;;;3.30;;
53072;SDS011;38955;48.916;2.336;2023-09-19T03:46:20;16.40;;;4.03;;
53072;SDS011;38955;48.916;2.336;2023-09-19T03:48:22;14.38;;;3.00;;
53072;SDS011;38955;48.916;2.336;2023-09-19T03:50:24;13.35;;;3.15;;
53072;SDS011;38955;48.916;2.336;2023-09-19T03:52:26;12.00;;;3.45;;
53072;SDS011;38955;48.916;2.336;2023-09-19T03:54:29;13.00;;;2.97;;
53072;SDS011;38955;48.916;2.336;2023-09-19T03:56:31;13.50;;;3.10;;
53072;SDS011;38955;48.916;2.336;2023-09-19T03:58:35;9.05;;;3.33;;
53072;SDS011;38955;48.916;2.336;2023-09-19T04:00:40;11.95;;;3.33;;
53072;SDS011;38955;48.916;2.336;2023-09-19T04:02:42;10.65;;;3.22;;
53072;SDS011;38955;48.916;2.336;2023-09-19T04:04:45;12.52;;;3.05;;
53072;SDS011;38955;48.916;2.336;2023-09-19T04:06:47;11.02;;;2.88;;
53072;SDS011;38955;48.916;2.336;2023-09-19T04:08:49;10.65;;;2.90;;
53072;SDS011;38955;48.916;2.336;2023-09-19T04:10:51;14.85;;;3.05;;
53072;SDS011;38955;48.916;2.336;2023-09-19T04:12:54;15.02;;;3.20;;
53072;SDS011;38955;48.916;2.336;2023-09-19T04:14:58;12.85;;;2.80;;
53072;SDS011;38955;48.916;2.336;2023-09-19T04:17:00;15.63;;;3.10;;
53072;SDS011;38955;48.916;2.336;2023-09-19T04:19:02;12.85;;;3.13;;
53072;SDS011;38955;48.916;2.336;2023-09-19T04:21:05;11.85;;;2.67;;
53072;SDS011;38955;48.916;2.336;2023-09-19T04:23:07;11.57;;;2.95;;
53072;SDS011;38955;48.916;2.336;2023-09-19T04:25:09;11.85;;;3.45;;
53072;SDS011;38955;48.916;2.336;2023-09-19T04:27:11;10.55;;;2.97;;
53072;SDS011;38955;48.916;2.336;2023-09-19T04:29:16;16.70;;;3.40;;
53072;SDS011;38955;48.916;2.336;2023-09-19T04:31:21;15.13;;;3.15;;
53072;SDS011;38955;48.916;2.336;2023-09-19T04:33:24;15.85;;;3.78;;
53072;SDS011;38955;48.916;2.336;2023-09-19T04:35:28;15.50;;;3.42;;
53072;SDS011;38955;48.916;2.336;2023-09-19T04:37:33;11.95;;;2.60;;
53072;SDS011;38955;48.916;2.336;2023-09-19T04:39:35;17.17;;;3.35;;
53072;SDS011;38955;48.916;2.336;2023-09-19T04:41:37;13.65;;;3.03;;
53072;SDS011;38955;48.916;2.336;2023-09-19T04:43:42;13.77;;;2.95;;
53072;SDS011;38955;48.916;2.336;2023-09-19T04:45:44;11.57;;;3.13;;
53072;SDS011;38955;48.916;2.336;2023-09-19T04:47:49;10.25;;;2.53;;
53072;SDS011;38955;48.916;2.336;2023-09-19T04:49:51;11.00;;;2.38;;
53072;SDS011;38955;48.916;2.336;2023-09-19T04:51:53;13.88;;;3.10;;
53072;SDS011;38955;48.916;2.336;2023-09-19T04:53:57;12.30;;;2.80;;
53072;SDS011;38955;48.916;2.336;2023-09-19T04:55:59;13.85;;;2.30;;
53072;SDS011;38955;48.916;2.336;2023-09-19T04:58:01;10.05;;;2.83;;
53072;SDS011;38955;48.916;2.336;2023-09-19T05:00:04;9.35;;;3.15;;
53072;SDS011;38955;48.916;2.336;2023-09-19T05:02:13;11.57;;;3.10;;
53072;SDS011;38955;48.916;2.336;2023-09-19T05:04:17;11.57;;;2.80;;
53072;SDS011;38955;48.916;2.336;2023-09-19T05:06:19;15.90;;;3.30;;
53072;SDS011;38955;48.916;2.336;2023-09-19T05:08:24;12.63;;;3.45;;
53072;SDS011;38955;48.916;2.336;2023-09-19T05:10:26;11.00;;;2.88;;
53072;SDS011;38955;48.916;2.336;2023-09-19T05:12:28;14.27;;;3.22;;
53072;SDS011;38955;48.916;2.336;2023-09-19T05:14:31;12.05;;;2.72;;
53072;SDS011;38955;48.916;2.336;2023-09-19T05:16:33;13.23;;;2.67;;
53072;SDS011;38955;48.916;2.336;2023-09-19T05:18:38;14.82;;;2.83;;
53072;SDS011;38955;48.916;2.336;2023-09-19T05:20:42;14.27;;;3.00;;
53072;SDS011;38955;48.916;2.336;2023-09-19T05:22:45;16.15;;;3.35;;
53072;SDS011;38955;48.916;2.336;2023-09-19T05:24:47;14.57;;;2.97;;
53072;SDS011;38955;48.916;2.336;2023-09-19T05:26:49;11.68;;;2.67;;
53072;SDS011;38955;48.916;2.336;2023-09-19T05:28:51;13.05;;;3.13;;
53072;SDS011;38955;48.916;2.336;2023-09-19T05:30:54;9.82;;;2.90;;
53072;SDS011;38955;48.916;2.336;2023-09-19T05:32:56;11.57;;;3.30;;
53072;SDS011;38955;48.916;2.336;2023-09-19T05:34:58;15.18;;;3.25;;
53072;SDS011;38955;48.916;2.336;2023-09-19T05:37:02;13.85;;;3.42;;
53072;SDS011;38955;48.916;2.336;2023-09-19T05:39:04;18.58;;;3.55;;
53072;SDS011;38955;48.916;2.336;2023-09-19T05:41:10;14.80;;;3.35;;
53072;SDS011;38955;48.916;2.336;2023-09-19T05:45:17;10.60;;;3.28;;
53072;SDS011;38955;48.916;2.336;2023-09-19T05:47:26;21.05;;;3.30;;
53072;SDS011;38955;48.916;2.336;2023-09-19T05:49:28;17.73;;;3.45;;
53072;SDS011;38955;48.916;2.336;2023-09-19T05:51:30;12.68;;;2.83;;
53072;SDS011;38955;48.916;2.336;2023-09-19T05:53:34;13.73;;;3.88;;
53072;SDS011;38955;48.916;2.336;2023-09-19T05:55:36;10.35;;;3.13;;
53072;SDS011;38955;48.916;2.336;2023-09-19T05:57:38;13.98;;;3.25;;
53072;SDS011;38955;48.916;2.336;2023-09-19T05:59:40;16.65;;;3.60;;
53072;SDS011;38955;48.916;2.336;2023-09-19T06:01:44;12.23;;;3.13;;
53072;SDS011;38955;48.916;2.336;2023-09-19T06:03:46;16.73;;;3.85;;
53072;SDS011;38955;48.916;2.336;2023-09-19T06:05:49;13.95;;;3.58;;
53072;SDS011;38955;48.916;2.336;2023-09-19T06:07:52;17.60;;;3.78;;
53072;SDS011;38955;48.916;2.336;2023-09-19T06:09:59;16.15;;;3.97;;
53072;SDS011;38955;48.916;2.336;2023-09-19T06:12:02;15.60;;;3.75;;
53072;SDS011;38955;48.916;2.336;2023-09-19T06:14:06;14.43;;;2.95;;
53072;SDS011;38955;48.916;2.336;2023-09-19T06:16:08;13.48;;;3.45;;
53072;SDS011;38955;48.916;2.336;2023-09-19T06:18:11;19.95;;;3.72;;
53072;SDS011;38955;48.916;2.336;2023-09-19T06:20:18;14.55;;;3.70;;
53072;SDS011;38955;48.916;2.336;2023-09-19T06:22:21;9.27;;;2.78;;
53072;SDS011;38955;48.916;2.336;2023-09-19T06:24:23;14.43;;;3.33;;
53072;SDS011;38955;48.916;2.336;2023-09-19T06:26:28;17.02;;;2.97;;
53072;SDS011;38955;48.916;2.336;2023-09-19T06:28:31;11.65;;;2.60;;
53072;SDS011;38955;48.916;2.336;2023-09-19T06:30:34;11.68;;;2.88;;
53072;SDS011;38955;48.916;2.336;2023-09-19T06:32:37;12.95;;;3.30;;
53072;SDS011;38955;48.916;2.336;2023-09-19T06:34:39;14.20;;;3.55;;
53072;SDS011;38955;48.916;2.336;2023-09-19T06:36:44;12.63;;;3.15;;
53072;SDS011;38955;48.916;2.336;2023-09-19T06:38:47;21.88;;;3.88;;
53072;SDS011;38955;48.916;2.336;2023-09-19T06:40:49;9.07;;;2.40;;
53072;SDS011;38955;48.916;2.336;2023-09-19T06:42:53;12.35;;;3.20;;
53072;SDS011;38955;48.916;2.336;2023-09-19T06:44:57;11.90;;;2.85;;
53072;SDS011;38955;48.916;2.336;2023-09-19T06:46:59;18.63;;;3.60;;
53072;SDS011;38955;48.916;2.336;2023-09-19T06:49:01;9.00;;;2.55;;
53072;SDS011;38955;48.916;2.336;2023-09-19T06:51:07;11.68;;;3.10;;
53072;SDS011;38955;48.916;2.336;2023-09-19T06:53:09;14.63;;;3.17;;
53072;SDS011;38955;48.916;2.336;2023-09-19T06:55:12;14.90;;;3.05;;
53072;SDS011;38955;48.916;2.336;2023-09-19T06:57:14;9.80;;;2.70;;
53072;SDS011;38955;48.916;2.336;2023-09-19T06:59:18;10.85;;;3.08;;
53072;SDS011;38955;48.916;2.336;2023-09-19T07:01:20;12.15;;;3.20;;
53072;SDS011;38955;48.916;2.336;2023-09-19T07:03:22;13.43;;;2.75;;
53072;SDS011;38955;48.916;2.336;2023-09-19T07:07:29;17.90;;;3.50;;
53072;SDS011;38955;48.916;2.336;2023-09-19T07:09:31;15.27;;;3.15;;
53072;SDS011;38955;48.916;2.336;2023-09-19T07:11:33;13.85;;;3.00;;
53072;SDS011;38955;48.916;2.336;2023-09-19T07:13:35;13.25;;;3.05;;
53072;SDS011;38955;48.916;2.336;2023-09-19T07:15:39;12.68;;;3.15;;
53072;SDS011;38955;48.916;2.336;2023-09-19T07:17:48;14.10;;;3.35;;
53072;SDS011;38955;48.916;2.336;2023-09-19T07:19:50;12.52;;;3.28;;
53072;SDS011;38955;48.916;2.336;2023-09-19T07:21:52;17.48;;;3.25;;
53072;SDS011;38955;48.916;2.336;2023-09-19T07:23:55;11.50;;;3.28;;
53072;SDS011;38955;48.916;2.336;2023-09-19T07:25:57;13.45;;;3.05;;
53072;SDS011;38955;48.916;2.336;2023-09-19T07:28:00;15.20;;;3.10;;
53072;SDS011;38955;48.916;2.336;2023-09-19T07:30:02;19.58;;;3.40;;
53072;SDS011;38955;48.916;2.336;2023-09-19T07:32:06;17.30;;;3.78;;
53072;SDS011;38955;48.916;2.336;2023-09-19T07:34:09;18.67;;;4.07;;
53072;SDS011;38955;48.916;2.336;2023-09-19T07:36:11;14.90;;;3.17;;
53072;SDS011;38955;48.916;2.336;2023-09-19T07:38:17;16.90;;;2.92;;
53072;SDS011;38955;48.916;2.336;2023-09-19T07:40:19;12.88;;;2.88;;
53072;SDS011;38955;48.916;2.336;2023-09-19T07:42:22;18.83;;;3.30;;
53072;SDS011;38955;48.916;2.336;2023-09-19T07:44:24;16.02;;;3.45;;
53072;SDS011;38955;48.916;2.336;2023-09-19T07:46:27;17.30;;;3.78;;
53072;SDS011;38955;48.916;2.336;2023-09-19T07:48:30;12.85;;;3.15;;
53072;SDS011;38955;48.916;2.336;2023-09-19T07:50:33;15.23;;;2.85;;
53072;SDS011;38955;48.916;2.336;2023-09-19T07:52:38;14.93;;;3.35;;
53072;SDS011;38955;48.916;2.336;2023-09-19T07:54:40;13.80;;;3.20;;
53072;SDS011;38955;48.916;2.336;2023-09-19T07:56:45;12.35;;;3.20;;
53072;SDS011;38955;48.916;2.336;2023-09-19T07:58:47;20.95;;;4.82;;
53072;SDS011;38955;48.916;2.336;2023-09-19T08:00:50;14.43;;;3.60;;
53072;SDS011;38955;48.916;2.336;2023-09-19T08:02:52;16.20;;;3.78;;
53072;SDS011;38955;48.916;2.336;2023-09-19T08:05:06;11.40;;;2.90;;
53072;SDS011;38955;48.916;2.336;2023-09-19T08:07:13;11.05;;;2.97;;
53072;SDS011;38955;48.916;2.336;2023-09-19T08:09:15;18.02;;;3.30;;
53072;SDS011;38955;48.916;2.336;2023-09-19T08:11:26;12.85;;;3.42;;
53072;SDS011;38955;48.916;2.336;2023-09-19T08:13:32;13.82;;;3.58;;
53072;SDS011;38955;48.916;2.336;2023-09-19T08:15:34;13.52;;;3.20;;
53072;SDS011;38955;48.916;2.336;2023-09-19T08:17:39;18.40;;;3.72;;
53072;SDS011;38955;48.916;2.336;2023-09-19T08:19:41;15.27;;;3.10;;
53072;SDS011;38955;48.916;2.336;2023-09-19T08:21:48;13.00;;;3.15;;
53072;SDS011;38955;48.916;2.336;2023-09-19T08:23:50;22.03;;;3.73;;
53072;SDS011;38955;48.916;2.336;2023-09-19T08:25:55;13.00;;;3.30;;
53072;SDS011;38955;48.916;2.336;2023-09-19T08:27:57;10.95;;;3.33;;
53072;SDS011;38955;48.916;2.336;2023-09-19T08:30:03;11.32;;;2.92;;
53072;SDS011;38955;48.916;2.336;2023-09-19T08:32:05;16.20;;;3.08;;
53072;SDS011;38955;48.916;2.336;2023-09-19T08:34:08;15.52;;;3.10;;
53072;SDS011;38955;48.916;2.336;2023-09-19T08:36:10;15.60;;;3.22;;
53072;SDS011;38955;48.916;2.336;2023-09-19T08:38:14;11.65;;;2.80;;
53072;SDS011;38955;48.916;2.336;2023-09-19T08:40:17;12.20;;;2.88;;
53072;SDS011;38955;48.916;2.336;2023-09-19T08:42:19;10.57;;;2.85;;
53072;SDS011;38955;48.916;2.336;2023-09-19T08:44:22;11.30;;;3.03;;
53072;SDS011;38955;48.916;2.336;2023-09-19T08:46:25;19.50;;;3.42;;
53072;SDS011;38955;48.916;2.336;2023-09-19T08:48:31;13.55;;;3.30;;
53072;SDS011;38955;48.916;2.336;2023-09-19T08:50:37;14.38;;;3.00;;
53072;SDS011;38955;48.916;2.336;2023-09-19T08:52:44;10.13;;;2.55;;
53072;SDS011;38955;48.916;2.336;2023-09-19T08:54:55;9.25;;;3.20;;
53072;SDS011;38955;48.916;2.336;2023-09-19T08:57:04;13.30;;;2.92;;
53072;SDS011;38955;48.916;2.336;2023-09-19T08:59:12;16.02;;;3.10;;
53072;SDS011;38955;48.916;2.336;2023-09-19T09:01:15;10.63;;;2.53;;
53072;SDS011;38955;48.916;2.336;2023-09-19T09:03:24;9.93;;;2.75;;
53072;SDS011;38955;48.916;2.336;2023-09-19T09:05:27;12.95;;;2.45;;
53072;SDS011;38955;48.916;2.336;2023-09-19T09:07:30;16.58;;;3.45;;
53072;SDS011;38955;48.916;2.336;2023-09-19T09:09:32;8.48;;;2.63;;
53072;SDS011;38955;48.916;2.336;2023-09-19T09:11:36;14.07;;;2.92;;
53072;SDS011;38955;48.916;2.336;2023-09-19T09:13:41;11.95;;;2.40;;
53072;SDS011;38955;48.916;2.336;2023-09-19T09:15:43;8.48;;;2.35;;
53072;SDS011;38955;48.916;2.336;2023-09-19T09:17:46;9.80;;;2.65;;
53072;SDS011;38955;48.916;2.336;2023-09-19T09:19:51;12.93;;;2.97;;
53072;SDS011;38955;48.916;2.336;2023-09-19T09:21:54;12.98;;;1.98;;
53072;SDS011;38955;48.916;2.336;2023-09-19T09:23:56;11.30;;;2.28;;
53072;SDS011;38955;48.916;2.336;2023-09-19T09:25:59;9.43;;;2.45;;
53072;SDS011;38955;48.916;2.336;2023-09-19T09:28:06;17.77;;;2.97;;
53072;SDS011;38955;48.916;2.336;2023-09-19T09:30:08;12.10;;;3.07;;
53072;SDS011;38955;48.916;2.336;2023-09-19T09:32:17;9.23;;;2.33;;
53072;SDS011;38955;48.916;2.336;2023-09-19T09:34:31;9.65;;;2.75;;
53072;SDS011;38955;48.916;2.336;2023-09-19T09:36:34;10.75;;;2.65;;
53072;SDS011;38955;48.916;2.336;2023-09-19T09:38:44;10.98;;;2.70;;
53072;SDS011;38955;48.916;2.336;2023-09-19T09:40:50;13.63;;;2.88;;
53072;SDS011;38955;48.916;2.336;2023-09-19T09:43:02;10.90;;;2.65;;
53072;SDS011;38955;48.916;2.336;2023-09-19T09:45:16;9.48;;;2.67;;
53072;SDS011;38955;48.916;2.336;2023-09-19T09:47:24;9.50;;;2.53;;
53072;SDS011;38955;48.916;2.336;2023-09-19T09:49:43;13.35;;;2.60;;
53072;SDS011;38955;48.916;2.336;2023-09-19T09:51:59;9.57;;;2.33;;
53072;SDS011;38955;48.916;2.336;2023-09-19T09:54:10;8.70;;;2.70;;
53072;SDS011;38955;48.916;2.336;2023-09-19T09:56:16;8.43;;;1.90;;
53072;SDS011;38955;48.916;2.336;2023-09-19T09:58:19;14.27;;;2.67;;
53072;SDS011;38955;48.916;2.336;2023-09-19T10:00:26;9.80;;;2.42;;
53072;SDS011;38955;48.916;2.336;2023-09-19T10:02:43;10.75;;;2.80;;
53072;SDS011;38955;48.916;2.336;2023-09-19T10:04:53;13.65;;;2.55;;
53072;SDS011;38955;48.916;2.336;2023-09-19T10:07:23;11.60;;;2.33;;
53072;SDS011;38955;48.916;2.336;2023-09-19T10:09:44;7.10;;;2.08;;
53072;SDS011;38955;48.916;2.336;2023-09-19T10:11:49;8.35;;;1.85;;
53072;SDS011;38955;48.916;2.336;2023-09-19T10:14:05;9.05;;;2.22;;
53072;SDS011;38955;48.916;2.336;2023-09-19T10:16:17;6.93;;;1.90;;
53072;SDS011;38955;48.916;2.336;2023-09-19T10:18:25;7.82;;;1.77;;
53072;SDS011;38955;48.916;2.336;2023-09-19T10:20:34;6.97;;;2.22;;
53072;SDS011;38955;48.916;2.336;2023-09-19T10:22:39;6.15;;;1.80;;
53072;SDS011;38955;48.916;2.336;2023-09-19T10:24:43;4.80;;;1.40;;
53072;SDS011;38955;48.916;2.336;2023-09-19T10:27:00;8.45;;;1.95;;
53072;SDS011;38955;48.916;2.336;2023-09-19T10:29:05;6.22;;;1.95;;
53072;SDS011;38955;48.916;2.336;2023-09-19T10:31:09;8.77;;;1.95;;
53072;SDS011;38955;48.916;2.336;2023-09-19T10:33:17;4.40;;;1.52;;
53072;SDS011;38955;48.916;2.336;2023-09-19T10:35:24;6.13;;;1.75;;
53072;SDS011;38955;48.916;2.336;2023-09-19T10:37:27;7.05;;;1.63;;
53072;SDS011;38955;48.916;2.336;2023-09-19T10:39:31;5.55;;;1.70;;
53072;SDS011;38955;48.916;2.336;2023-09-19T10:41:34;9.25;;;2.03;;
53072;SDS011;38955;48.916;2.336;2023-09-19T10:43:38;9.63;;;1.83;;
53072;SDS011;38955;48.916;2.336;2023-09-19T10:45:46;9.65;;;2.58;;
53072;SDS011;38955;48.916;2.336;2023-09-19T10:47:51;8.45;;;2.28;;
53072;SDS011;38955;48.916;2.336;2023-09-19T10:49:54;8.15;;;1.92;;
53072;SDS011;38955;48.916;2.336;2023-09-19T10:51:57;7.75;;;2.13;;
53072;SDS011;38955;48.916;2.336;2023-09-19T10:56:07;10.27;;;1.90;;
53072;SDS011;38955;48.916;2.336;2023-09-19T10:58:23;8.63;;;2.13;;
53072;SDS011;38955;48.916;2.336;2023-09-19T11:00:27;5.93;;;1.65;;
53072;SDS011;38955;48.916;2.336;2023-09-19T11:02:35;5.68;;;1.80;;
53072;SDS011;38955;48.916;2.336;2023-09-19T11:04:38;7.38;;;2.00;;
53072;SDS011;38955;48.916;2.336;2023-09-19T11:06:42;8.27;;;1.92;;
53072;SDS011;38955;48.916;2.336;2023-09-19T11:08:51;11.87;;;2.03;;
53072;SDS011;38955;48.916;2.336;2023-09-19T11:10:57;6.95;;;1.83;;
53072;SDS011;38955;48.916;2.336;2023-09-19T11:13:09;8.05;;;1.70;;
53072;SDS011;38955;48.916;2.336;2023-09-19T11:23:37;7.63;;;2.15;;
53072;SDS011;38955;48.916;2.336;2023-09-19T11:25:42;6.93;;;1.70;;
53072;SDS011;38955;48.916;2.336;2023-09-19T11:30:33;8.02;;;2.20;;
53072;SDS011;38955;48.916;2.336;2023-09-19T11:35:25;4.20;;;1.52;;
53072;SDS011;38955;48.916;2.336;2023-09-19T11:38:01;6.03;;;1.85;;
53072;SDS011;38955;48.916;2.336;2023-09-19T11:40:08;7.28;;;1.90;;
53072;SDS011;38955;48.916;2.336;2023-09-19T11:44:47;10.63;;;2.13;;
53072;SDS011;38955;48.916;2.336;2023-09-19T11:46:53;8.98;;;1.80;;
53072;SDS011;38955;48.916;2.336;2023-09-19T11:51:12;6.68;;;1.67;;
53072;SDS011;38955;48.916;2.336;2023-09-19T11:53:23;8.13;;;2.20;;
53072;SDS011;38955;48.916;2.336;2023-09-19T11:55:33;11.07;;;2.03;;
53072;SDS011;38955;48.916;2.336;2023-09-19T11:57:36;8.37;;;1.90;;
53072;SDS011;38955;48.916;2.336;2023-09-19T11:59:38;10.65;;;2.63;;
53072;SDS011;38955;48.916;2.336;2023-09-19T12:01:42;5.05;;;1.70;;
53072;SDS011;38955;48.916;2.336;2023-09-19T12:03:52;9.60;;;2.10;;
53072;SDS011;38955;48.916;2.336;2023-09-19T12:05:58;8.75;;;2.67;;
53072;SDS011;38955;48.916;2.336;2023-09-19T12:08:01;12.48;;;2.22;;
53072;SDS011;38955;48.916;2.336;2023-09-19T12:10:06;9.25;;;2.30;;
53072;SDS011;38955;48.916;2.336;2023-09-19T12:12:20;9.40;;;2.20;;
53072;SDS011;38955;48.916;2.336;2023-09-19T12:14:26;8.02;;;2.03;;
53072;SDS011;38955;48.916;2.336;2023-09-19T12:16:28;28.87;;;5.70;;
53072;SDS011;38955;48.916;2.336;2023-09-19T12:18:35;30.40;;;5.68;;
53072;SDS011;38955;48.916;2.336;2023-09-19T12:20:44;11.10;;;2.20;;
53072;SDS011;38955;48.916;2.336;2023-09-19T12:22:51;10.52;;;2.88;;
53072;SDS011;38955;48.916;2.336;2023-09-19T12:24:53;12.93;;;3.05;;
53072;SDS011;38955;48.916;2.336;2023-09-19T12:27:06;15.27;;;2.80;;
53072;SDS011;38955;48.916;2.336;2023-09-19T12:29:15;8.57;;;2.23;;
53072;SDS011;38955;48.916;2.336;2023-09-19T12:31:21;9.35;;;2.15;;
53072;SDS011;38955;48.916;2.336;2023-09-19T12:33:23;6.50;;;1.95;;
53072;SDS011;38955;48.916;2.336;2023-09-19T12:35:28;7.97;;;2.00;;
53072;SDS011;38955;48.916;2.336;2023-09-19T12:37:31;7.50;;;2.22;;
53072;SDS011;38955;48.916;2.336;2023-09-19T12:39:41;6.90;;;2.20;;
53072;SDS011;38955;48.916;2.336;2023-09-19T12:41:44;13.07;;;2.95;;
53072;SDS011;38955;48.916;2.336;2023-09-19T12:43:48;7.25;;;1.92;;
53072;SDS011;38955;48.916;2.336;2023-09-19T12:45:53;12.43;;;2.97;;
53072;SDS011;38955;48.916;2.336;2023-09-19T12:50:22;7.63;;;1.88;;
53072;SDS011;38955;48.916;2.336;2023-09-19T12:52:34;10.80;;;2.08;;